sensor_id;sensor_type;location;lat;lon;timestamp;P1;durP1;ratioP1;P2;durP2;ratioP2
23206;SDS011;11773;52.570;13.052;2023-01-29T00:00:29;1.53;;;1.20;;
23206;SDS011;11773;52.570;13.052;2023-01-29T00:02:58;1.30;;;1.20;;
23206;SDS011;11773;52.570;13.052;2023-01-29T00:05:28;1.40;;;1.30;;
23206;SDS011;11773;52.570;13.052;2023-01-29T00:07:58;1.50;;;1.40;;
23206;SDS011;11773;52.570;13.052;2023-01-29T00:10:28;1.87;;;1.70;;
23206;SDS011;11773;52.570;13.052;2023-01-29T00:12:58;1.80;;;1.43;;
23206;SDS011;11773;52.570;13.052;2023-01-29T00:15:27;1.47;;;1.37;;
23206;SDS011;11773;52.570;13.052;2023-01-29T00:17:57;1.40;;;1.30;;
23206;SDS011;11773;52.570;13.052;2023-01-29T00:20:26;1.50;;;1.40;;
23206;SDS011;11773;52.570;13.052;2023-01-29T00:22:56;1.37;;;1.33;;
23206;SDS011;11773;52.570;13.052;2023-01-29T00:25:25;1.50;;;1.40;;
23206;SDS011;11773;52.570;13.052;2023-01-29T00:27:55;1.27;;;1.17;;
23206;SDS011;11773;52.570;13.052;2023-01-29T00:30:24;1.63;;;1.23;;
23206;SDS011;11773;52.570;13.052;2023-01-29T00:32:54;1.47;;;1.37;;
23206;SDS011;11773;52.570;13.052;2023-01-29T00:35:24;1.60;;;1.50;;
23206;SDS011;11773;52.570;13.052;2023-01-29T00:37:54;1.67;;;1.50;;
23206;SDS011;11773;52.570;13.052;2023-01-29T00:40:24;1.50;;;1.40;;
23206;SDS011;11773;52.570;13.052;2023-01-29T00:42:54;1.27;;;1.23;;
23206;SDS011;11773;52.570;13.052;2023-01-29T00:45:41;1.90;;;1.80;;
23206;SDS011;11773;52.570;13.052;2023-01-29T00:48:11;1.87;;;1.73;;
23206;SDS011;11773;52.570;13.052;2023-01-29T00:50:40;1.90;;;1.80;;
23206;SDS011;11773;52.570;13.052;2023-01-29T00:53:10;2.07;;;1.87;;
23206;SDS011;11773;52.570;13.052;2023-01-29T00:55:39;1.73;;;1.63;;
23206;SDS011;11773;52.570;13.052;2023-01-29T00:58:09;1.90;;;1.70;;
23206;SDS011;11773;52.570;13.052;2023-01-29T01:00:38;1.60;;;1.50;;
23206;SDS011;11773;52.570;13.052;2023-01-29T01:03:08;2.33;;;2.13;;
23206;SDS011;11773;52.570;13.052;2023-01-29T01:05:38;1.93;;;1.83;;
23206;SDS011;11773;52.570;13.052;2023-01-29T01:08:09;1.70;;;1.60;;
23206;SDS011;11773;52.570;13.052;2023-01-29T01:11:03;2.80;;;2.00;;
23206;SDS011;11773;52.570;13.052;2023-01-29T01:13:34;2.00;;;1.80;;
23206;SDS011;11773;52.570;13.052;2023-01-29T01:16:07;2.20;;;2.00;;
23206;SDS011;11773;52.570;13.052;2023-01-29T01:18:39;2.43;;;2.23;;
23206;SDS011;11773;52.570;13.052;2023-01-29T01:21:09;2.30;;;2.10;;
23206;SDS011;11773;52.570;13.052;2023-01-29T01:23:39;2.07;;;1.90;;
23206;SDS011;11773;52.570;13.052;2023-01-29T01:26:08;2.30;;;2.10;;
23206;SDS011;11773;52.570;13.052;2023-01-29T01:28:38;2.00;;;1.80;;
23206;SDS011;11773;52.570;13.052;2023-01-29T01:31:13;2.60;;;2.40;;
23206;SDS011;11773;52.570;13.052;2023-01-29T01:33:40;2.33;;;2.13;;
23206;SDS011;11773;52.570;13.052;2023-01-29T01:36:09;2.90;;;2.20;;
23206;SDS011;11773;52.570;13.052;2023-01-29T01:38:39;2.33;;;2.13;;
23206;SDS011;11773;52.570;13.052;2023-01-29T01:41:13;2.97;;;2.73;;
23206;SDS011;11773;52.570;13.052;2023-01-29T01:43:47;2.57;;;2.37;;
23206;SDS011;11773;52.570;13.052;2023-01-29T01:46:24;2.37;;;2.17;;
23206;SDS011;11773;52.570;13.052;2023-01-29T01:49:04;2.10;;;1.90;;
23206;SDS011;11773;52.570;13.052;2023-01-29T01:51:53;2.70;;;2.40;;
23206;SDS011;11773;52.570;13.052;2023-01-29T01:54:24;2.33;;;2.13;;
23206;SDS011;11773;52.570;13.052;2023-01-29T01:57:02;2.60;;;2.37;;
23206;SDS011;11773;52.570;13.052;2023-01-29T01:59:37;2.60;;;2.30;;
23206;SDS011;11773;52.570;13.052;2023-01-29T02:02:14;2.75;;;2.25;;
23206;SDS011;11773;52.570;13.052;2023-01-29T02:05:03;2.47;;;2.27;;
23206;SDS011;11773;52.570;13.052;2023-01-29T02:07:50;3.07;;;2.60;;
23206;SDS011;11773;52.570;13.052;2023-01-29T02:10:40;3.57;;;2.83;;
23206;SDS011;11773;52.570;13.052;2023-01-29T02:13:12;3.00;;;2.60;;
23206;SDS011;11773;52.570;13.052;2023-01-29T02:15:45;1.80;;;1.70;;
23206;SDS011;11773;52.570;13.052;2023-01-29T02:18:20;2.97;;;2.40;;
23206;SDS011;11773;52.570;13.052;2023-01-29T02:27:33;2.27;;;2.07;;
23206;SDS011;11773;52.570;13.052;2023-01-29T02:30:35;2.20;;;2.00;;
23206;SDS011;11773;52.570;13.052;2023-01-29T02:33:38;2.10;;;1.90;;
23206;SDS011;11773;52.570;13.052;2023-01-29T02:35:54;2.33;;;2.00;;
23206;SDS011;11773;52.570;13.052;2023-01-29T02:41:56;1.73;;;1.63;;
23206;SDS011;11773;52.570;13.052;2023-01-29T02:45:01;1.87;;;1.70;;
23206;SDS011;11773;52.570;13.052;2023-01-29T02:47:54;2.30;;;2.10;;
23206;SDS011;11773;52.570;13.052;2023-01-29T02:50:36;2.07;;;1.67;;
23206;SDS011;11773;52.570;13.052;2023-01-29T02:53:15;1.70;;;1.60;;
23206;SDS011;11773;52.570;13.052;2023-01-29T02:56:06;2.20;;;2.00;;
23206;SDS011;11773;52.570;13.052;2023-01-29T02:58:48;2.10;;;1.90;;
23206;SDS011;11773;52.570;13.052;2023-01-29T03:01:18;2.53;;;2.20;;
23206;SDS011;11773;52.570;13.052;2023-01-29T03:03:54;2.10;;;1.90;;
23206;SDS011;11773;52.570;13.052;2023-01-29T03:06:34;2.13;;;1.93;;
23206;SDS011;11773;52.570;13.052;2023-01-29T03:09:07;1.90;;;1.80;;
23206;SDS011;11773;52.570;13.052;2023-01-29T03:11:43;2.00;;;1.87;;
23206;SDS011;11773;52.570;13.052;2023-01-29T03:14:19;2.07;;;1.87;;
23206;SDS011;11773;52.570;13.052;2023-01-29T03:16:56;1.90;;;1.70;;
23206;SDS011;11773;52.570;13.052;2023-01-29T03:19:32;1.73;;;1.63;;
23206;SDS011;11773;52.570;13.052;2023-01-29T03:22:07;1.80;;;1.70;;
23206;SDS011;11773;52.570;13.052;2023-01-29T03:24:49;2.43;;;2.20;;
23206;SDS011;11773;52.570;13.052;2023-01-29T03:27:46;2.00;;;1.77;;
23206;SDS011;11773;52.570;13.052;2023-01-29T03:30:41;1.67;;;1.57;;
23206;SDS011;11773;52.570;13.052;2023-01-29T03:33:38;2.43;;;2.17;;
23206;SDS011;11773;52.570;13.052;2023-01-29T03:36:22;2.67;;;2.47;;
23206;SDS011;11773;52.570;13.052;2023-01-29T03:39:07;3.13;;;2.70;;
23206;SDS011;11773;52.570;13.052;2023-01-29T03:41:43;3.20;;;2.90;;
23206;SDS011;11773;52.570;13.052;2023-01-29T03:47:25;2.60;;;2.03;;
23206;SDS011;11773;52.570;13.052;2023-01-29T03:53:21;2.77;;;2.57;;
23206;SDS011;11773;52.570;13.052;2023-01-29T03:56:19;2.40;;;2.20;;
23206;SDS011;11773;52.570;13.052;2023-01-29T04:01:55;2.87;;;2.60;;
23206;SDS011;11773;52.570;13.052;2023-01-29T04:04:36;3.87;;;3.43;;
23206;SDS011;11773;52.570;13.052;2023-01-29T04:09:48;4.47;;;3.47;;
23206;SDS011;11773;52.570;13.052;2023-01-29T04:12:25;4.13;;;3.17;;
23206;SDS011;11773;52.570;13.052;2023-01-29T04:14:58;3.33;;;3.00;;
23206;SDS011;11773;52.570;13.052;2023-01-29T04:17:32;2.80;;;2.50;;
23206;SDS011;11773;52.570;13.052;2023-01-29T04:20:08;2.50;;;2.30;;
23206;SDS011;11773;52.570;13.052;2023-01-29T04:22:38;3.10;;;2.67;;
23206;SDS011;11773;52.570;13.052;2023-01-29T04:25:15;2.33;;;2.10;;
23206;SDS011;11773;52.570;13.052;2023-01-29T04:28:40;3.20;;;2.30;;
23206;SDS011;11773;52.570;13.052;2023-01-29T04:30:58;2.23;;;1.97;;
23206;SDS011;11773;52.570;13.052;2023-01-29T04:33:33;2.50;;;2.30;;
23206;SDS011;11773;52.570;13.052;2023-01-29T04:39:09;2.43;;;2.23;;
23206;SDS011;11773;52.570;13.052;2023-01-29T04:44:43;3.73;;;3.13;;
23206;SDS011;11773;52.570;13.052;2023-01-29T04:47:46;2.87;;;2.57;;
23206;SDS011;11773;52.570;13.052;2023-01-29T04:50:36;2.47;;;2.20;;
23206;SDS011;11773;52.570;13.052;2023-01-29T04:53:12;2.70;;;2.40;;
23206;SDS011;11773;52.570;13.052;2023-01-29T04:55:57;3.50;;;3.10;;
23206;SDS011;11773;52.570;13.052;2023-01-29T04:58:38;3.23;;;2.90;;
23206;SDS011;11773;52.570;13.052;2023-01-29T05:01:12;3.43;;;2.87;;
23206;SDS011;11773;52.570;13.052;2023-01-29T05:03:47;3.43;;;2.50;;
23206;SDS011;11773;52.570;13.052;2023-01-29T05:06:20;3.20;;;2.90;;
23206;SDS011;11773;52.570;13.052;2023-01-29T05:08:52;2.90;;;2.40;;
23206;SDS011;11773;52.570;13.052;2023-01-29T05:11:24;2.70;;;2.40;;
23206;SDS011;11773;52.570;13.052;2023-01-29T05:13:54;2.63;;;2.23;;
23206;SDS011;11773;52.570;13.052;2023-01-29T05:16:25;2.37;;;2.17;;
23206;SDS011;11773;52.570;13.052;2023-01-29T05:19:00;2.60;;;2.30;;
23206;SDS011;11773;52.570;13.052;2023-01-29T05:21:30;2.90;;;2.30;;
23206;SDS011;11773;52.570;13.052;2023-01-29T05:24:11;2.23;;;2.03;;
23206;SDS011;11773;52.570;13.052;2023-01-29T05:26:53;2.10;;;1.90;;
23206;SDS011;11773;52.570;13.052;2023-01-29T05:29:42;2.50;;;2.30;;
23206;SDS011;11773;52.570;13.052;2023-01-29T05:32:14;2.10;;;1.87;;
23206;SDS011;11773;52.570;13.052;2023-01-29T05:34:43;3.00;;;2.70;;
23206;SDS011;11773;52.570;13.052;2023-01-29T05:37:13;3.27;;;2.47;;
23206;SDS011;11773;52.570;13.052;2023-01-29T05:39:42;2.83;;;2.60;;
23206;SDS011;11773;52.570;13.052;2023-01-29T05:42:12;2.77;;;2.50;;
23206;SDS011;11773;52.570;13.052;2023-01-29T05:44:41;2.50;;;2.30;;
23206;SDS011;11773;52.570;13.052;2023-01-29T05:47:11;3.00;;;2.70;;
23206;SDS011;11773;52.570;13.052;2023-01-29T05:49:40;2.77;;;2.50;;
23206;SDS011;11773;52.570;13.052;2023-01-29T05:52:10;3.17;;;2.80;;
23206;SDS011;11773;52.570;13.052;2023-01-29T05:54:39;2.67;;;2.40;;
23206;SDS011;11773;52.570;13.052;2023-01-29T05:57:09;2.80;;;2.50;;
23206;SDS011;11773;52.570;13.052;2023-01-29T05:59:38;3.73;;;3.17;;
23206;SDS011;11773;52.570;13.052;2023-01-29T06:02:08;3.10;;;2.60;;
23206;SDS011;11773;52.570;13.052;2023-01-29T06:04:37;2.83;;;2.57;;
23206;SDS011;11773;52.570;13.052;2023-01-29T06:07:07;3.30;;;3.00;;
23206;SDS011;11773;52.570;13.052;2023-01-29T06:09:36;3.73;;;3.20;;
23206;SDS011;11773;52.570;13.052;2023-01-29T06:12:05;2.90;;;2.60;;
23206;SDS011;11773;52.570;13.052;2023-01-29T06:14:35;2.70;;;2.50;;
23206;SDS011;11773;52.570;13.052;2023-01-29T06:17:04;2.43;;;2.23;;
23206;SDS011;11773;52.570;13.052;2023-01-29T06:19:34;2.77;;;2.57;;
23206;SDS011;11773;52.570;13.052;2023-01-29T06:22:03;2.80;;;2.50;;
23206;SDS011;11773;52.570;13.052;2023-01-29T06:24:33;2.70;;;2.40;;
23206;SDS011;11773;52.570;13.052;2023-01-29T06:27:02;2.97;;;2.30;;
23206;SDS011;11773;52.570;13.052;2023-01-29T06:29:32;2.70;;;2.50;;
23206;SDS011;11773;52.570;13.052;2023-01-29T06:32:02;3.20;;;2.63;;
23206;SDS011;11773;52.570;13.052;2023-01-29T06:34:32;3.33;;;2.90;;
23206;SDS011;11773;52.570;13.052;2023-01-29T06:37:01;3.10;;;2.63;;
23206;SDS011;11773;52.570;13.052;2023-01-29T06:39:31;2.50;;;2.30;;
23206;SDS011;11773;52.570;13.052;2023-01-29T06:42:01;2.80;;;2.50;;
23206;SDS011;11773;52.570;13.052;2023-01-29T06:44:30;2.50;;;2.30;;
23206;SDS011;11773;52.570;13.052;2023-01-29T06:47:00;2.77;;;2.33;;
23206;SDS011;11773;52.570;13.052;2023-01-29T06:49:29;2.50;;;2.13;;
23206;SDS011;11773;52.570;13.052;2023-01-29T06:51:58;3.00;;;2.70;;
23206;SDS011;11773;52.570;13.052;2023-01-29T06:54:28;2.50;;;2.23;;
23206;SDS011;11773;52.570;13.052;2023-01-29T06:56:57;2.87;;;2.57;;
23206;SDS011;11773;52.570;13.052;2023-01-29T06:59:27;2.87;;;2.50;;
23206;SDS011;11773;52.570;13.052;2023-01-29T07:01:56;2.87;;;2.50;;
23206;SDS011;11773;52.570;13.052;2023-01-29T07:04:26;2.70;;;2.40;;
23206;SDS011;11773;52.570;13.052;2023-01-29T07:06:55;2.33;;;2.13;;
23206;SDS011;11773;52.570;13.052;2023-01-29T07:09:27;3.23;;;2.80;;
23206;SDS011;11773;52.570;13.052;2023-01-29T07:11:56;2.77;;;2.50;;
23206;SDS011;11773;52.570;13.052;2023-01-29T07:14:26;3.23;;;2.87;;
23206;SDS011;11773;52.570;13.052;2023-01-29T07:16:56;2.87;;;2.57;;
23206;SDS011;11773;52.570;13.052;2023-01-29T07:19:25;3.20;;;2.60;;
23206;SDS011;11773;52.570;13.052;2023-01-29T07:21:55;3.70;;;3.27;;
23206;SDS011;11773;52.570;13.052;2023-01-29T07:24:26;2.83;;;2.57;;
23206;SDS011;11773;52.570;13.052;2023-01-29T07:26:55;3.30;;;2.90;;
23206;SDS011;11773;52.570;13.052;2023-01-29T07:29:25;3.00;;;2.50;;
23206;SDS011;11773;52.570;13.052;2023-01-29T07:31:54;2.60;;;2.30;;
23206;SDS011;11773;52.570;13.052;2023-01-29T07:34:24;2.73;;;2.50;;
23206;SDS011;11773;52.570;13.052;2023-01-29T07:36:54;2.83;;;2.50;;
23206;SDS011;11773;52.570;13.052;2023-01-29T07:39:23;2.93;;;2.60;;
23206;SDS011;11773;52.570;13.052;2023-01-29T07:41:52;2.40;;;2.20;;
23206;SDS011;11773;52.570;13.052;2023-01-29T07:44:22;3.13;;;2.80;;
23206;SDS011;11773;52.570;13.052;2023-01-29T07:46:51;3.37;;;2.90;;
23206;SDS011;11773;52.570;13.052;2023-01-29T07:49:21;2.60;;;2.40;;
23206;SDS011;11773;52.570;13.052;2023-01-29T07:51:50;2.57;;;2.37;;
23206;SDS011;11773;52.570;13.052;2023-01-29T07:54:20;3.47;;;2.83;;
23206;SDS011;11773;52.570;13.052;2023-01-29T07:56:49;3.07;;;2.60;;
23206;SDS011;11773;52.570;13.052;2023-01-29T07:59:19;3.57;;;3.10;;
23206;SDS011;11773;52.570;13.052;2023-01-29T08:01:48;3.50;;;2.87;;
23206;SDS011;11773;52.570;13.052;2023-01-29T08:04:18;5.30;;;4.37;;
23206;SDS011;11773;52.570;13.052;2023-01-29T08:06:47;3.73;;;3.20;;
23206;SDS011;11773;52.570;13.052;2023-01-29T08:09:16;3.40;;;2.90;;
23206;SDS011;11773;52.570;13.052;2023-01-29T08:11:46;3.30;;;2.90;;
23206;SDS011;11773;52.570;13.052;2023-01-29T08:14:15;3.10;;;2.80;;
23206;SDS011;11773;52.570;13.052;2023-01-29T08:16:45;3.53;;;3.03;;
23206;SDS011;11773;52.570;13.052;2023-01-29T08:19:14;3.63;;;3.07;;
23206;SDS011;11773;52.570;13.052;2023-01-29T08:21:44;3.40;;;2.77;;
23206;SDS011;11773;52.570;13.052;2023-01-29T08:24:13;3.80;;;3.10;;
23206;SDS011;11773;52.570;13.052;2023-01-29T08:26:43;4.90;;;3.97;;
23206;SDS011;11773;52.570;13.052;2023-01-29T08:29:13;5.47;;;4.20;;
23206;SDS011;11773;52.570;13.052;2023-01-29T08:31:42;5.40;;;4.40;;
23206;SDS011;11773;52.570;13.052;2023-01-29T08:34:12;3.90;;;3.47;;
23206;SDS011;11773;52.570;13.052;2023-01-29T08:36:41;4.17;;;3.33;;
23206;SDS011;11773;52.570;13.052;2023-01-29T08:39:11;4.13;;;3.50;;
23206;SDS011;11773;52.570;13.052;2023-01-29T08:41:40;3.50;;;2.87;;
23206;SDS011;11773;52.570;13.052;2023-01-29T08:44:10;3.90;;;3.50;;
23206;SDS011;11773;52.570;13.052;2023-01-29T08:46:39;4.97;;;4.17;;
23206;SDS011;11773;52.570;13.052;2023-01-29T08:49:09;3.30;;;3.00;;
23206;SDS011;11773;52.570;13.052;2023-01-29T08:51:38;3.73;;;3.17;;
23206;SDS011;11773;52.570;13.052;2023-01-29T08:54:07;3.47;;;3.17;;
23206;SDS011;11773;52.570;13.052;2023-01-29T08:56:37;3.73;;;3.03;;
23206;SDS011;11773;52.570;13.052;2023-01-29T08:59:08;3.33;;;3.00;;
23206;SDS011;11773;52.570;13.052;2023-01-29T09:01:38;3.73;;;3.10;;
23206;SDS011;11773;52.570;13.052;2023-01-29T09:04:07;5.00;;;4.00;;
23206;SDS011;11773;52.570;13.052;2023-01-29T09:06:37;3.97;;;3.30;;
23206;SDS011;11773;52.570;13.052;2023-01-29T09:09:06;3.47;;;3.07;;
23206;SDS011;11773;52.570;13.052;2023-01-29T09:11:36;4.17;;;3.47;;
23206;SDS011;11773;52.570;13.052;2023-01-29T09:14:06;5.23;;;4.00;;
23206;SDS011;11773;52.570;13.052;2023-01-29T09:16:37;3.80;;;3.40;;
23206;SDS011;11773;52.570;13.052;2023-01-29T09:19:07;4.70;;;3.67;;
23206;SDS011;11773;52.570;13.052;2023-01-29T09:21:36;4.13;;;3.40;;
23206;SDS011;11773;52.570;13.052;2023-01-29T09:24:06;3.77;;;3.30;;
23206;SDS011;11773;52.570;13.052;2023-01-29T09:26:36;5.00;;;4.30;;
23206;SDS011;11773;52.570;13.052;2023-01-29T09:29:07;4.30;;;3.70;;
23206;SDS011;11773;52.570;13.052;2023-01-29T09:31:38;3.87;;;3.47;;
23206;SDS011;11773;52.570;13.052;2023-01-29T09:34:08;5.67;;;3.70;;
23206;SDS011;11773;52.570;13.052;2023-01-29T09:36:37;5.47;;;4.13;;
23206;SDS011;11773;52.570;13.052;2023-01-29T09:39:06;5.83;;;4.53;;
23206;SDS011;11773;52.570;13.052;2023-01-29T09:47:32;3.10;;;2.80;;
23206;SDS011;11773;52.570;13.052;2023-01-29T09:52:38;3.83;;;2.93;;
23206;SDS011;11773;52.570;13.052;2023-01-29T09:55:23;3.10;;;2.80;;
23206;SDS011;11773;52.570;13.052;2023-01-29T09:58:15;3.03;;;2.50;;
23206;SDS011;11773;52.570;13.052;2023-01-29T10:04:01;3.37;;;3.00;;
23206;SDS011;11773;52.570;13.052;2023-01-29T10:09:48;4.80;;;3.60;;
23206;SDS011;11773;52.570;13.052;2023-01-29T10:12:58;4.13;;;3.37;;
23206;SDS011;11773;52.570;13.052;2023-01-29T10:15:51;3.80;;;3.20;;
23206;SDS011;11773;52.570;13.052;2023-01-29T10:18:28;4.07;;;3.13;;
23206;SDS011;11773;52.570;13.052;2023-01-29T10:27:12;5.60;;;4.03;;
23206;SDS011;11773;52.570;13.052;2023-01-29T10:29:46;7.47;;;5.10;;
23206;SDS011;11773;52.570;13.052;2023-01-29T10:32:20;4.93;;;4.03;;
23206;SDS011;11773;52.570;13.052;2023-01-29T10:35:12;4.30;;;3.50;;
23206;SDS011;11773;52.570;13.052;2023-01-29T10:38:01;4.27;;;3.73;;
23206;SDS011;11773;52.570;13.052;2023-01-29T10:46:37;5.60;;;4.83;;
23206;SDS011;11773;52.570;13.052;2023-01-29T10:53:12;5.20;;;4.20;;
23206;SDS011;11773;52.570;13.052;2023-01-29T10:56:06;5.37;;;4.33;;
23206;SDS011;11773;52.570;13.052;2023-01-29T10:58:55;3.90;;;3.37;;
23206;SDS011;11773;52.570;13.052;2023-01-29T11:01:28;4.43;;;3.77;;
23206;SDS011;11773;52.570;13.052;2023-01-29T11:04:02;4.70;;;3.90;;
23206;SDS011;11773;52.570;13.052;2023-01-29T11:06:35;4.20;;;3.50;;
23206;SDS011;11773;52.570;13.052;2023-01-29T11:09:11;4.23;;;3.70;;
23206;SDS011;11773;52.570;13.052;2023-01-29T11:11:59;3.87;;;3.43;;
23206;SDS011;11773;52.570;13.052;2023-01-29T11:14:37;3.40;;;3.07;;
23206;SDS011;11773;52.570;13.052;2023-01-29T11:17:17;3.40;;;3.10;;
23206;SDS011;11773;52.570;13.052;2023-01-29T11:19:50;3.07;;;2.67;;
23206;SDS011;11773;52.570;13.052;2023-01-29T11:22:22;4.30;;;3.70;;
23206;SDS011;11773;52.570;13.052;2023-01-29T11:25:07;3.80;;;3.40;;
23206;SDS011;11773;52.570;13.052;2023-01-29T11:27:44;3.70;;;3.17;;
23206;SDS011;11773;52.570;13.052;2023-01-29T11:30:28;4.10;;;3.70;;
23206;SDS011;11773;52.570;13.052;2023-01-29T11:33:05;5.73;;;4.87;;
23206;SDS011;11773;52.570;13.052;2023-01-29T11:35:49;5.13;;;4.57;;
23206;SDS011;11773;52.570;13.052;2023-01-29T11:38:23;5.07;;;3.77;;
23206;SDS011;11773;52.570;13.052;2023-01-29T11:41:04;3.97;;;3.57;;
23206;SDS011;11773;52.570;13.052;2023-01-29T11:43:37;5.30;;;4.80;;
23206;SDS011;11773;52.570;13.052;2023-01-29T11:46:10;5.97;;;4.60;;
23206;SDS011;11773;52.570;13.052;2023-01-29T11:48:46;4.67;;;4.10;;
23206;SDS011;11773;52.570;13.052;2023-01-29T11:51:26;4.27;;;3.57;;
23206;SDS011;11773;52.570;13.052;2023-01-29T11:53:57;3.63;;;3.23;;
23206;SDS011;11773;52.570;13.052;2023-01-29T11:56:33;4.77;;;3.77;;
23206;SDS011;11773;52.570;13.052;2023-01-29T11:59:20;3.30;;;3.00;;
23206;SDS011;11773;52.570;13.052;2023-01-29T12:02:18;3.25;;;2.95;;
23206;SDS011;11773;52.570;13.052;2023-01-29T12:05:02;3.77;;;3.47;;
23206;SDS011;11773;52.570;13.052;2023-01-29T12:07:34;5.70;;;4.90;;
23206;SDS011;11773;52.570;13.052;2023-01-29T12:10:26;4.20;;;3.80;;
23206;SDS011;11773;52.570;13.052;2023-01-29T12:13:05;3.80;;;3.40;;
23206;SDS011;11773;52.570;13.052;2023-01-29T12:15:45;4.73;;;4.20;;
23206;SDS011;11773;52.570;13.052;2023-01-29T12:21:17;4.30;;;3.90;;
23206;SDS011;11773;52.570;13.052;2023-01-29T12:24:18;4.00;;;3.50;;
23206;SDS011;11773;52.570;13.052;2023-01-29T12:27:10;4.23;;;3.13;;
23206;SDS011;11773;52.570;13.052;2023-01-29T12:32:55;4.20;;;3.73;;
23206;SDS011;11773;52.570;13.052;2023-01-29T12:35:46;5.63;;;3.70;;
23206;SDS011;11773;52.570;13.052;2023-01-29T12:38:20;4.97;;;4.17;;
23206;SDS011;11773;52.570;13.052;2023-01-29T12:41:04;4.53;;;3.83;;
23206;SDS011;11773;52.570;13.052;2023-01-29T12:43:46;4.07;;;3.37;;
23206;SDS011;11773;52.570;13.052;2023-01-29T12:46:30;4.83;;;3.73;;
23206;SDS011;11773;52.570;13.052;2023-01-29T12:49:00;5.83;;;4.40;;
23206;SDS011;11773;52.570;13.052;2023-01-29T12:51:37;5.27;;;4.63;;
23206;SDS011;11773;52.570;13.052;2023-01-29T12:54:16;4.20;;;3.30;;
23206;SDS011;11773;52.570;13.052;2023-01-29T12:56:52;4.37;;;3.57;;
23206;SDS011;11773;52.570;13.052;2023-01-29T12:59:36;4.77;;;4.03;;
23206;SDS011;11773;52.570;13.052;2023-01-29T13:02:23;4.27;;;3.83;;
23206;SDS011;11773;52.570;13.052;2023-01-29T13:05:01;4.07;;;3.57;;
23206;SDS011;11773;52.570;13.052;2023-01-29T13:07:38;4.33;;;3.20;;
23206;SDS011;11773;52.570;13.052;2023-01-29T13:10:12;4.53;;;3.90;;
23206;SDS011;11773;52.570;13.052;2023-01-29T13:15:38;4.63;;;3.77;;
23206;SDS011;11773;52.570;13.052;2023-01-29T13:18:22;5.37;;;4.57;;
23206;SDS011;11773;52.570;13.052;2023-01-29T13:21:16;4.10;;;3.53;;
23206;SDS011;11773;52.570;13.052;2023-01-29T13:23:55;5.00;;;4.40;;
23206;SDS011;11773;52.570;13.052;2023-01-29T13:26:33;7.43;;;4.77;;
23206;SDS011;11773;52.570;13.052;2023-01-29T13:29:03;4.40;;;3.83;;
23206;SDS011;11773;52.570;13.052;2023-01-29T13:31:33;4.70;;;4.03;;
23206;SDS011;11773;52.570;13.052;2023-01-29T13:34:10;4.87;;;4.10;;
23206;SDS011;11773;52.570;13.052;2023-01-29T13:36:44;5.10;;;4.03;;
23206;SDS011;11773;52.570;13.052;2023-01-29T13:42:13;3.87;;;3.42;;
23206;SDS011;11773;52.570;13.052;2023-01-29T13:45:21;3.57;;;2.80;;
23206;SDS011;11773;52.570;13.052;2023-01-29T13:48:07;4.53;;;3.57;;
23206;SDS011;11773;52.570;13.052;2023-01-29T13:50:40;3.80;;;3.10;;
23206;SDS011;11773;52.570;13.052;2023-01-29T13:53:28;3.57;;;2.83;;
23206;SDS011;11773;52.570;13.052;2023-01-29T13:56:11;4.23;;;3.67;;
23206;SDS011;11773;52.570;13.052;2023-01-29T13:58:55;4.07;;;3.37;;
23206;SDS011;11773;52.570;13.052;2023-01-29T14:06:57;4.13;;;3.67;;
23206;SDS011;11773;52.570;13.052;2023-01-29T14:09:33;3.70;;;3.30;;
23206;SDS011;11773;52.570;13.052;2023-01-29T14:17:32;4.23;;;3.80;;
23206;SDS011;11773;52.570;13.052;2023-01-29T14:20:15;3.87;;;3.30;;
23206;SDS011;11773;52.570;13.052;2023-01-29T14:22:55;3.93;;;3.10;;
23206;SDS011;11773;52.570;13.052;2023-01-29T14:25:30;4.70;;;3.83;;
23206;SDS011;11773;52.570;13.052;2023-01-29T14:28:03;4.00;;;3.60;;
23206;SDS011;11773;52.570;13.052;2023-01-29T14:30:36;4.47;;;3.47;;
23206;SDS011;11773;52.570;13.052;2023-01-29T14:33:18;4.30;;;3.30;;
23206;SDS011;11773;52.570;13.052;2023-01-29T14:35:48;3.50;;;3.10;;
23206;SDS011;11773;52.570;13.052;2023-01-29T14:38:19;3.10;;;2.60;;
23206;SDS011;11773;52.570;13.052;2023-01-29T14:41:01;4.10;;;3.27;;
23206;SDS011;11773;52.570;13.052;2023-01-29T14:43:47;4.33;;;3.80;;
23206;SDS011;11773;52.570;13.052;2023-01-29T14:47:01;4.77;;;3.27;;
23206;SDS011;11773;52.570;13.052;2023-01-29T14:49:06;3.40;;;2.93;;
23206;SDS011;11773;52.570;13.052;2023-01-29T14:51:37;3.83;;;3.10;;
23206;SDS011;11773;52.570;13.052;2023-01-29T14:54:17;4.93;;;4.20;;
23206;SDS011;11773;52.570;13.052;2023-01-29T14:56:55;5.07;;;4.47;;
23206;SDS011;11773;52.570;13.052;2023-01-29T14:59:29;4.33;;;3.70;;
23206;SDS011;11773;52.570;13.052;2023-01-29T15:02:15;4.43;;;3.67;;
23206;SDS011;11773;52.570;13.052;2023-01-29T15:04:49;4.37;;;3.60;;
23206;SDS011;11773;52.570;13.052;2023-01-29T15:07:31;4.57;;;3.80;;
23206;SDS011;11773;52.570;13.052;2023-01-29T15:12:55;3.90;;;3.50;;
23206;SDS011;11773;52.570;13.052;2023-01-29T15:15:37;4.93;;;3.63;;
23206;SDS011;11773;52.570;13.052;2023-01-29T15:18:14;4.47;;;3.57;;
23206;SDS011;11773;52.570;13.052;2023-01-29T15:21:03;4.13;;;3.37;;
23206;SDS011;11773;52.570;13.052;2023-01-29T15:23:44;3.40;;;2.73;;
23206;SDS011;11773;52.570;13.052;2023-01-29T15:26:18;2.83;;;2.53;;
23206;SDS011;11773;52.570;13.052;2023-01-29T15:28:58;2.83;;;2.57;;
23206;SDS011;11773;52.570;13.052;2023-01-29T15:31:49;3.20;;;2.73;;
23206;SDS011;11773;52.570;13.052;2023-01-29T15:34:19;3.50;;;2.77;;
23206;SDS011;11773;52.570;13.052;2023-01-29T15:36:49;4.23;;;3.47;;
23206;SDS011;11773;52.570;13.052;2023-01-29T15:39:22;5.27;;;4.00;;
23206;SDS011;11773;52.570;13.052;2023-01-29T15:42:08;3.58;;;3.00;;
23206;SDS011;11773;52.570;13.052;2023-01-29T15:44:44;3.53;;;3.00;;
23206;SDS011;11773;52.570;13.052;2023-01-29T15:47:14;3.70;;;3.30;;
23206;SDS011;11773;52.570;13.052;2023-01-29T15:49:44;4.60;;;3.70;;
23206;SDS011;11773;52.570;13.052;2023-01-29T15:52:22;5.80;;;4.60;;
23206;SDS011;11773;52.570;13.052;2023-01-29T15:54:51;5.47;;;4.63;;
23206;SDS011;11773;52.570;13.052;2023-01-29T15:57:24;5.47;;;4.27;;
23206;SDS011;11773;52.570;13.052;2023-01-29T15:59:59;4.50;;;3.67;;
23206;SDS011;11773;52.570;13.052;2023-01-29T16:02:36;7.53;;;5.47;;
23206;SDS011;11773;52.570;13.052;2023-01-29T16:05:12;6.00;;;5.03;;
23206;SDS011;11773;52.570;13.052;2023-01-29T16:07:49;6.43;;;5.37;;
23206;SDS011;11773;52.570;13.052;2023-01-29T16:10:26;5.93;;;4.77;;
23206;SDS011;11773;52.570;13.052;2023-01-29T16:12:55;5.37;;;4.63;;
23206;SDS011;11773;52.570;13.052;2023-01-29T16:15:27;4.23;;;3.60;;
23206;SDS011;11773;52.570;13.052;2023-01-29T16:18:04;3.60;;;3.30;;
23206;SDS011;11773;52.570;13.052;2023-01-29T16:20:52;3.77;;;3.27;;
23206;SDS011;11773;52.570;13.052;2023-01-29T16:23:25;3.67;;;3.13;;
23206;SDS011;11773;52.570;13.052;2023-01-29T16:26:02;4.03;;;3.30;;
23206;SDS011;11773;52.570;13.052;2023-01-29T16:28:40;4.70;;;3.40;;
23206;SDS011;11773;52.570;13.052;2023-01-29T16:31:11;3.93;;;3.53;;
23206;SDS011;11773;52.570;13.052;2023-01-29T16:33:51;4.33;;;3.40;;
23206;SDS011;11773;52.570;13.052;2023-01-29T16:36:23;4.53;;;3.90;;
23206;SDS011;11773;52.570;13.052;2023-01-29T16:38:57;4.53;;;3.87;;
23206;SDS011;11773;52.570;13.052;2023-01-29T16:41:32;5.28;;;4.20;;
23206;SDS011;11773;52.570;13.052;2023-01-29T16:47:04;4.40;;;3.50;;
23206;SDS011;11773;52.570;13.052;2023-01-29T16:49:44;9.07;;;6.70;;